Time;durP1;ratioP1;P1;durP2;ratioP2;P2;SDS_P1;SDS_P2;PMS_P1;PMS_P2;Temp;Humidity;BMP_temperature;BMP_pressure;BME280_temperature;BME280_humidity;BME280_pressure;Samples;Min_cycle;Max_cycle;Signal;HPM_P1;HPM_P2
2022/11/13 00:01:49;;;;;;;14.70;13.60;;;7.90;99.90;;;;;;5076722;28;20861;-71
2022/11/13 00:04:15;;;;;;;14.03;12.83;;;7.70;99.90;;;;;;5076415;28;20482;-68
2022/11/13 00:06:42;;;;;;;16.07;14.33;;;7.70;99.90;;;;;;5073874;28;20534;-68
2022/11/13 00:09:11;;;;;;;15.07;13.77;;;7.60;99.90;;;;;;5077955;28;20459;-70
2022/11/13 00:11:38;;;;;;;17.20;15.23;;;7.50;99.90;;;;;;5072345;28;20461;-67
2022/11/13 00:14:07;;;;;;;18.03;14.37;;;7.50;99.90;;;;;;5073775;28;20976;-69
2022/11/13 00:16:33;;;;;;;15.43;14.23;;;7.40;99.90;;;;;;5072652;28;20483;-71
2022/11/13 00:19:01;;;;;;;14.20;13.23;;;7.50;99.90;;;;;;5078223;28;20474;-71
2022/11/13 00:21:27;;;;;;;14.47;13.10;;;7.60;99.90;;;;;;5072441;28;20520;-71
2022/11/13 00:23:55;;;;;;;14.13;13.03;;;7.70;99.90;;;;;;5079578;28;20481;-71
2022/11/13 00:26:24;;;;;;;15.27;13.87;;;7.70;99.90;;;;;;5076102;28;20470;-68
2022/11/13 00:28:54;;;;;;;14.63;13.10;;;7.70;99.90;;;;;;5078387;28;20491;-70
2022/11/13 00:31:23;;;;;;;13.97;12.60;;;7.80;99.90;;;;;;5078624;28;20811;-67
2022/11/13 00:33:51;;;;;;;14.67;13.37;;;7.80;99.90;;;;;;5072675;28;21119;-68
2022/11/13 00:36:20;;;;;;;13.77;12.73;;;7.90;99.90;;;;;;5074479;28;20585;-69
2022/11/13 00:38:48;;;;;;;15.13;13.77;;;7.90;99.90;;;;;;5072671;28;20486;-70
2022/11/13 00:41:17;;;;;;;14.93;13.53;;;7.90;99.90;;;;;;5071640;28;20834;-69
2022/11/13 00:43:44;;;;;;;14.67;13.47;;;7.90;99.90;;;;;;5079140;28;20865;-68
2022/11/13 00:46:11;;;;;;;14.23;12.93;;;7.90;99.90;;;;;;5075775;28;22462;-68
2022/11/13 00:48:39;;;;;;;16.07;14.63;;;7.90;99.90;;;;;;5073908;28;20558;-69
2022/11/13 00:51:06;;;;;;;15.50;14.03;;;7.90;99.90;;;;;;5073919;28;20467;-69
2022/11/13 00:53:33;;;;;;;15.07;13.70;;;8.00;99.90;;;;;;5073828;28;20462;-69
2022/11/13 00:56:00;;;;;;;14.17;12.83;;;8.00;99.90;;;;;;5072273;28;20489;-70
2022/11/13 00:58:27;;;;;;;16.07;14.60;;;8.00;99.90;;;;;;5075716;28;20476;-70
2022/11/13 01:00:54;;;;;;;14.93;13.47;;;8.00;99.90;;;;;;5077481;28;20453;-71
2022/11/13 01:03:21;;;;;;;16.43;14.93;;;8.00;99.90;;;;;;5076104;28;20473;-70
2022/11/13 01:05:50;;;;;;;14.80;13.50;;;8.10;99.90;;;;;;5078039;28;20487;-69
2022/11/13 01:08:17;;;;;;;15.00;13.80;;;8.10;99.90;;;;;;5074762;28;20472;-71
2022/11/13 01:10:47;;;;;;;15.53;14.13;;;8.10;99.90;;;;;;5073919;28;20473;-67
2022/11/13 01:13:14;;;;;;;14.23;12.93;;;8.20;99.90;;;;;;5081487;28;20473;-71
2022/11/13 01:15:42;;;;;;;15.43;14.23;;;8.30;99.90;;;;;;5074456;28;20469;-68
2022/11/13 01:18:10;;;;;;;14.43;13.23;;;8.40;99.90;;;;;;5073381;28;20477;-67
2022/11/13 01:20:37;;;;;;;14.90;13.53;;;8.40;99.90;;;;;;5072131;28;20554;-69
2022/11/13 01:23:05;;;;;;;14.53;13.20;;;8.40;99.90;;;;;;5074346;28;20458;-69
2022/11/13 01:25:32;;;;;;;14.63;13.50;;;8.40;99.90;;;;;;5066367;28;20979;-70
2022/11/13 01:27:59;;;;;;;15.07;13.67;;;8.40;99.90;;;;;;5073429;28;20971;-70
2022/11/13 01:30:26;;;;;;;18.23;13.63;;;8.50;99.90;;;;;;5078519;28;20457;-71
2022/11/13 01:32:53;;;;;;;15.50;14.30;;;8.50;99.90;;;;;;5071134;28;20468;-68
2022/11/13 01:35:20;;;;;;;15.93;14.27;;;8.50;99.90;;;;;;5074583;28;20471;-69
2022/11/13 01:37:47;;;;;;;15.57;14.07;;;8.40;99.90;;;;;;5081636;28;20552;-68
2022/11/13 01:40:16;;;;;;;17.30;14.13;;;8.40;99.90;;;;;;5072591;28;20455;-68
2022/11/13 01:42:43;;;;;;;20.17;14.70;;;8.40;99.90;;;;;;5070522;28;20970;-68
2022/11/13 01:45:47;;;;;;;15.00;13.90;;;8.40;99.90;;;;;;5075489;28;20466;-68
2022/11/13 01:48:13;;;;;;;15.30;13.77;;;8.30;99.90;;;;;;5076363;28;20984;-68
2022/11/13 01:50:40;;;;;;;16.13;14.73;;;8.30;99.90;;;;;;5074344;28;20477;-68
2022/11/13 01:53:09;;;;;;;15.33;13.83;;;8.30;99.90;;;;;;5073547;28;20497;-67
2022/11/13 01:55:37;;;;;;;19.03;14.80;;;8.30;99.90;;;;;;5068542;28;20544;-68
2022/11/13 01:58:08;;;;;;;16.67;15.03;;;8.20;99.90;;;;;;5073579;28;20872;-68
2022/11/13 02:00:35;;;;;;;17.57;15.23;;;8.20;99.90;;;;;;5074833;28;20469;-68
2022/11/13 02:03:02;;;;;;;15.53;14.20;;;8.10;99.90;;;;;;5071415;28;20914;-68
2022/11/13 02:05:29;;;;;;;16.27;14.67;;;8.10;99.90;;;;;;5069904;28;20564;-68
2022/11/13 02:07:56;;;;;;;24.67;15.20;;;8.00;99.90;;;;;;5068730;28;20905;-68
2022/11/13 02:10:24;;;;;;;20.33;14.80;;;7.90;99.90;;;;;;5074332;28;20516;-68
2022/11/13 02:12:53;;;;;;;16.13;14.33;;;7.90;99.90;;;;;;5076771;28;20463;-68
2022/11/13 02:15:23;;;;;;;16.50;14.90;;;7.80;99.90;;;;;;5074633;28;20830;-68
2022/11/13 02:17:54;;;;;;;16.43;14.90;;;7.80;99.90;;;;;;5070847;28;21026;-68
2022/11/13 02:20:30;;;;;;;15.83;14.23;;;7.80;99.90;;;;;;5067139;28;20875;-68
2022/11/13 02:23:07;;;;;;;17.67;15.87;;;7.70;99.90;;;;;;5067148;28;20479;-68
2022/11/13 02:25:37;;;;;;;19.00;15.77;;;7.60;99.90;;;;;;5072778;28;21032;-68
2022/11/13 02:28:04;;;;;;;19.83;15.47;;;7.60;99.90;;;;;;5076532;28;20461;-69
2022/11/13 02:30:32;;;;;;;20.37;15.70;;;7.60;99.90;;;;;;5074155;28;20970;-68
2022/11/13 02:33:00;;;;;;;21.80;15.33;;;7.50;99.90;;;;;;5071159;28;20532;-68
2022/11/13 02:35:29;;;;;;;17.63;15.97;;;7.50;99.90;;;;;;5066265;28;20895;-68
2022/11/13 02:37:58;;;;;;;16.70;14.97;;;7.40;99.90;;;;;;5079422;28;20566;-69
2022/11/13 02:40:26;;;;;;;16.10;14.47;;;7.40;99.90;;;;;;5070133;28;20810;-69
2022/11/13 02:42:54;;;;;;;19.20;16.00;;;7.30;99.90;;;;;;5070261;28;20470;-68
2022/11/13 02:45:21;;;;;;;17.30;15.70;;;7.20;99.90;;;;;;5076961;28;20460;-67
2022/11/13 02:47:48;;;;;;;17.67;16.03;;;7.10;99.90;;;;;;5071807;28;20473;-68
2022/11/13 02:50:16;;;;;;;19.10;16.07;;;7.10;99.90;;;;;;5074779;28;20462;-68
2022/11/13 02:52:43;;;;;;;17.87;15.97;;;7.10;99.90;;;;;;5072723;28;21554;-68
2022/11/13 02:55:10;;;;;;;17.80;16.17;;;7.10;99.90;;;;;;5072083;28;20559;-68
2022/11/13 02:57:37;;;;;;;17.13;15.73;;;7.10;99.90;;;;;;5073923;28;20488;-68
2022/11/13 03:00:07;;;;;;;17.80;16.00;;;7.10;99.90;;;;;;5071995;28;20465;-68
2022/11/13 03:02:34;;;;;;;17.00;15.30;;;7.20;99.90;;;;;;5070797;28;20459;-69
2022/11/13 03:05:01;;;;;;;16.60;15.10;;;7.20;99.90;;;;;;5072659;28;20897;-69
2022/11/13 03:07:27;;;;;;;17.00;15.60;;;7.10;99.90;;;;;;5072523;28;20901;-68
2022/11/13 03:09:55;;;;;;;18.03;16.23;;;6.90;99.90;;;;;;5066304;28;20509;-68
2022/11/13 03:12:22;;;;;;;17.30;15.80;;;6.90;99.90;;;;;;5073169;28;20468;-68
2022/11/13 03:14:49;;;;;;;18.63;15.53;;;6.70;99.90;;;;;;5071986;28;20661;-68
2022/11/13 03:17:18;;;;;;;19.00;16.70;;;6.70;99.90;;;;;;5071339;28;20502;-69
2022/11/13 03:19:45;;;;;;;16.30;15.00;;;6.60;99.90;;;;;;5067670;28;20470;-68
2022/11/13 03:22:12;;;;;;;20.67;16.77;;;6.60;99.90;;;;;;5072081;28;20552;-67
2022/11/13 03:24:39;;;;;;;17.83;16.33;;;6.60;99.90;;;;;;5076600;28;20965;-69
2022/11/13 03:27:06;;;;;;;17.00;15.57;;;6.60;99.90;;;;;;5070870;28;20463;-68
2022/11/13 03:29:32;;;;;;;17.40;15.63;;;6.60;99.90;;;;;;5071761;28;20840;-68
2022/11/13 03:31:59;;;;;;;16.47;15.10;;;6.60;99.90;;;;;;5075383;28;20459;-68
2022/11/13 03:34:28;;;;;;;16.83;15.50;;;6.70;99.90;;;;;;5073526;28;20529;-68
2022/11/13 03:36:55;;;;;;;16.27;15.07;;;6.70;99.90;;;;;;5071214;28;20479;-68
2022/11/13 03:39:22;;;;;;;17.03;15.47;;;6.80;99.90;;;;;;5076372;28;20490;-68
2022/11/13 03:41:48;;;;;;;17.47;15.63;;;6.80;99.90;;;;;;5066813;28;20842;-68
2022/11/13 03:44:15;;;;;;;16.50;15.20;;;6.90;99.90;;;;;;5071872;28;21088;-68
2022/11/13 03:46:42;;;;;;;16.33;14.93;;;6.90;99.90;;;;;;5070290;28;20879;-68
2022/11/13 03:49:09;;;;;;;16.30;15.00;;;6.90;99.90;;;;;;5076425;28;20458;-68
2022/11/13 03:51:39;;;;;;;16.53;15.33;;;6.90;99.90;;;;;;5075203;28;20465;-68
2022/11/13 03:54:06;;;;;;;17.17;15.67;;;7.00;99.90;;;;;;5077114;28;20961;-68
2022/11/13 03:56:33;;;;;;;17.40;15.50;;;7.10;99.90;;;;;;5079106;28;20463;-68
2022/11/13 03:59:00;;;;;;;16.10;14.70;;;7.00;99.90;;;;;;5076764;28;20857;-68
2022/11/13 04:01:27;;;;;;;17.70;15.37;;;7.00;99.90;;;;;;5076098;28;20919;-68
2022/11/13 04:03:53;;;;;;;20.17;16.13;;;7.00;99.90;;;;;;5070901;28;20879;-68
2022/11/13 04:06:20;;;;;;;16.83;15.20;;;7.00;99.90;;;;;;5078055;28;21018;-68
2022/11/13 04:08:49;;;;;;;15.23;13.93;;;7.00;99.90;;;;;;5081144;28;20989;-68
2022/11/13 04:11:16;;;;;;;15.87;14.40;;;7.00;99.90;;;;;;5078580;28;20458;-68
2022/11/13 04:13:42;;;;;;;14.97;13.53;;;7.00;99.90;;;;;;5074078;28;20470;-68
2022/11/13 04:16:09;;;;;;;16.53;14.90;;;7.00;99.90;;;;;;5079057;28;20915;-68
2022/11/13 04:18:36;;;;;;;22.83;14.93;;;6.90;99.90;;;;;;5070207;28;20500;-68
2022/11/13 04:21:05;;;;;;;16.50;14.80;;;6.80;99.90;;;;;;5073201;28;20512;-68
2022/11/13 04:23:32;;;;;;;25.03;15.27;;;6.70;99.90;;;;;;5080847;28;20477;-68
2022/11/13 04:26:01;;;;;;;17.60;15.90;;;6.60;99.90;;;;;;5078896;28;20966;-68
2022/11/13 04:28:28;;;;;;;18.40;16.57;;;6.50;99.90;;;;;;5074791;28;20477;-68
2022/11/13 04:30:56;;;;;;;16.53;15.03;;;6.50;99.90;;;;;;5074645;28;20997;-68
2022/11/13 04:33:22;;;;;;;17.53;15.73;;;6.50;99.90;;;;;;5082442;28;20462;-69
2022/11/13 04:35:50;;;;;;;16.60;15.00;;;6.50;99.90;;;;;;5069657;28;20467;-68
2022/11/13 04:38:17;;;;;;;16.00;14.60;;;6.60;99.90;;;;;;5068563;28;20974;-68
2022/11/13 04:40:44;;;;;;;16.03;14.33;;;6.70;99.90;;;;;;5075729;28;20461;-67
2022/11/13 04:43:11;;;;;;;16.20;15.10;;;6.70;99.90;;;;;;5072199;28;20865;-68
2022/11/13 04:45:38;;;;;;;17.17;13.90;;;6.70;99.90;;;;;;5069342;28;20478;-68
2022/11/13 04:48:05;;;;;;;16.20;14.80;;;6.60;99.90;;;;;;5071609;28;20826;-68
2022/11/13 04:50:33;;;;;;;19.60;15.70;;;6.70;99.90;;;;;;5072816;28;20469;-68
2022/11/13 04:52:59;;;;;;;16.13;14.63;;;6.70;99.90;;;;;;5075448;28;20977;-68
2022/11/13 04:55:27;;;;;;;15.80;14.50;;;6.70;99.90;;;;;;5075990;28;20971;-68
2022/11/13 04:57:55;;;;;;;16.90;15.43;;;6.60;99.90;;;;;;5075911;28;20486;-68
2022/11/13 05:00:24;;;;;;;15.93;14.83;;;6.70;99.90;;;;;;5072515;28;20462;-67
2022/11/13 05:02:50;;;;;;;16.20;14.80;;;6.70;99.90;;;;;;5071948;28;20477;-68
2022/11/13 05:05:18;;;;;;;15.40;14.30;;;6.70;99.90;;;;;;5071107;28;20478;-68
2022/11/13 05:07:44;;;;;;;22.17;15.10;;;6.70;99.90;;;;;;5078451;28;20981;-68
2022/11/13 05:10:11;;;;;;;19.63;17.70;;;6.60;99.90;;;;;;5076547;28;20499;-68
2022/11/13 05:12:38;;;;;;;15.57;14.47;;;6.60;99.90;;;;;;5073263;28;20466;-68
2022/11/13 05:15:06;;;;;;;17.70;15.00;;;6.80;99.90;;;;;;5075216;28;20551;-68
2022/11/13 05:17:35;;;;;;;15.00;13.70;;;6.80;99.90;;;;;;5072010;28;20561;-68
2022/11/13 05:20:03;;;;;;;15.37;14.17;;;6.90;99.90;;;;;;5072603;28;20550;-68
2022/11/13 05:22:29;;;;;;;17.03;15.60;;;6.90;99.90;;;;;;5064468;28;20477;-68
2022/11/13 05:24:56;;;;;;;15.33;14.03;;;6.90;99.90;;;;;;5076787;28;20791;-68
2022/11/13 05:27:23;;;;;;;15.40;14.00;;;6.80;99.90;;;;;;5075067;28;20506;-68
2022/11/13 05:29:50;;;;;;;16.17;14.77;;;6.80;99.90;;;;;;5072190;28;20529;-68
2022/11/13 05:32:16;;;;;;;16.93;15.43;;;6.70;99.90;;;;;;5077481;28;20793;-68
2022/11/13 05:34:45;;;;;;;17.27;15.47;;;6.70;99.90;;;;;;5070473;28;20466;-69
2022/11/13 05:37:11;;;;;;;16.77;15.47;;;6.60;99.90;;;;;;5072052;28;20537;-68
2022/11/13 05:39:38;;;;;;;16.77;15.50;;;6.50;99.90;;;;;;5074285;28;20470;-68
2022/11/13 05:42:05;;;;;;;16.83;15.70;;;6.50;99.90;;;;;;5074239;28;20467;-68
2022/11/13 05:44:32;;;;;;;16.93;15.30;;;6.40;99.90;;;;;;5070692;28;20466;-68
2022/11/13 05:46:59;;;;;;;17.30;15.90;;;6.30;99.90;;;;;;5076937;28;21004;-68
2022/11/13 05:49:26;;;;;;;18.47;17.10;;;6.20;99.90;;;;;;5073764;28;20466;-68
2022/11/13 05:51:54;;;;;;;18.47;16.30;;;6.20;99.90;;;;;;5080154;28;20958;-68
2022/11/13 05:54:21;;;;;;;17.80;16.40;;;6.20;99.90;;;;;;5065097;28;21051;-68
2022/11/13 05:56:47;;;;;;;16.43;15.37;;;6.20;99.90;;;;;;5072443;28;20462;-68
2022/11/13 05:59:14;;;;;;;18.60;17.07;;;6.20;99.90;;;;;;5065852;28;20490;-68
2022/11/13 06:01:41;;;;;;;17.73;16.17;;;6.20;99.90;;;;;;5072779;28;20464;-68
2022/11/13 06:04:09;;;;;;;20.93;16.17;;;6.30;99.90;;;;;;5070531;28;20497;-69
2022/11/13 06:06:36;;;;;;;21.93;16.17;;;6.30;99.90;;;;;;5077975;28;20462;-68
2022/11/13 06:09:05;;;;;;;17.30;15.80;;;6.30;99.90;;;;;;5074539;28;20468;-68
2022/11/13 06:11:32;;;;;;;18.07;16.30;;;6.30;99.90;;;;;;5075191;28;20496;-68
2022/11/13 06:14:00;;;;;;;17.13;15.60;;;6.30;99.90;;;;;;5069840;28;20473;-68
2022/11/13 06:16:28;;;;;;;17.53;15.87;;;6.30;99.90;;;;;;5081612;28;20996;-68
2022/11/13 06:18:57;;;;;;;16.77;15.37;;;6.20;99.90;;;;;;5073343;28;20526;-68
2022/11/13 06:21:27;;;;;;;23.03;16.80;;;6.10;99.90;;;;;;5079266;28;20867;-68
2022/11/13 06:23:54;;;;;;;17.70;16.20;;;6.00;99.90;;;;;;5069496;28;20471;-69
2022/11/13 06:26:24;;;;;;;16.27;14.97;;;6.00;99.90;;;;;;5074558;28;20465;-68
2022/11/13 06:28:52;;;;;;;17.13;15.63;;;6.10;99.90;;;;;;5066827;28;20470;-68
2022/11/13 06:31:20;;;;;;;20.43;16.37;;;6.00;99.90;;;;;;5068879;28;20492;-68
2022/11/13 06:34:02;;;;;;;16.87;15.20;;;6.00;99.90;;;;;;5071513;28;20462;-68
2022/11/13 06:36:30;;;;;;;21.07;16.30;;;6.00;99.90;;;;;;5072670;28;20469;-68
2022/11/13 06:38:58;;;;;;;17.60;16.20;;;5.90;99.90;;;;;;5071077;28;20496;-68
2022/11/13 06:41:28;;;;;;;17.47;15.87;;;5.90;99.90;;;;;;5071415;28;20517;-68
2022/11/13 06:43:55;;;;;;;17.37;15.60;;;6.00;99.90;;;;;;5075650;28;20566;-68
2022/11/13 06:46:23;;;;;;;17.63;16.23;;;6.00;99.90;;;;;;5069769;28;20470;-68
2022/11/13 06:48:51;;;;;;;16.83;15.63;;;5.90;99.90;;;;;;5076884;28;20462;-68
2022/11/13 06:51:19;;;;;;;15.60;14.30;;;5.90;99.90;;;;;;5068106;28;20473;-68
2022/11/13 06:53:46;;;;;;;16.83;15.63;;;6.00;99.90;;;;;;5065297;28;20558;-68
2022/11/13 06:56:13;;;;;;;16.17;14.80;;;6.10;99.90;;;;;;5069978;28;20490;-68
2022/11/13 06:58:43;;;;;;;23.03;14.97;;;6.10;99.90;;;;;;5074462;28;21021;-68
2022/11/13 07:01:11;;;;;;;15.13;13.83;;;6.20;99.90;;;;;;5078024;28;20487;-68
2022/11/13 07:03:38;;;;;;;15.93;14.50;;;6.20;99.90;;;;;;5067884;28;20533;-68
2022/11/13 07:06:08;;;;;;;13.87;12.57;;;6.30;99.90;;;;;;5067726;28;20455;-68
2022/11/13 07:08:35;;;;;;;18.07;14.20;;;6.30;99.90;;;;;;5070128;28;20497;-68
2022/11/13 07:11:03;;;;;;;16.37;15.27;;;6.40;99.90;;;;;;5068602;28;20863;-68
2022/11/13 07:13:29;;;;;;;16.03;14.40;;;6.50;99.90;;;;;;5070045;28;20495;-68
2022/11/13 07:16:03;;;;;;;14.33;13.00;;;6.50;99.90;;;;;;5069897;28;20883;-68
2022/11/13 07:18:31;;;;;;;14.57;13.40;;;6.50;99.90;;;;;;5063698;28;21001;-68
2022/11/13 07:20:58;;;;;;;16.57;14.83;;;6.60;99.90;;;;;;5071166;28;20979;-68
2022/11/13 07:23:25;;;;;;;15.67;14.20;;;6.70;99.90;;;;;;5068880;28;20461;-68
2022/11/13 07:25:54;;;;;;;14.70;13.27;;;6.80;99.90;;;;;;5072755;28;20457;-68
2022/11/13 07:28:21;;;;;;;15.33;13.77;;;6.90;99.90;;;;;;5064844;28;21023;-68
2022/11/13 07:30:48;;;;;;;18.93;14.90;;;6.90;99.90;;;;;;5074564;28;20455;-68
2022/11/13 07:33:16;;;;;;;14.20;13.10;;;7.10;99.90;;;;;;5074843;28;20455;-68
2022/11/13 07:35:43;;;;;;;15.00;13.90;;;7.10;99.90;;;;;;5069701;28;20782;-68
2022/11/13 07:38:10;;;;;;;17.30;15.90;;;7.20;99.90;;;;;;5071533;28;20826;-68
2022/11/13 07:40:37;;;;;;;15.90;14.80;;;7.30;99.90;;;;;;5070780;28;20861;-68
2022/11/13 07:43:04;;;;;;;15.20;13.80;;;7.40;99.90;;;;;;5075043;28;20952;-68
2022/11/13 07:45:31;;;;;;;14.83;13.77;;;7.40;99.90;;;;;;5076967;28;20596;-68
2022/11/13 07:47:59;;;;;;;15.47;14.33;;;7.50;99.90;;;;;;5069228;28;20957;-68
2022/11/13 07:50:28;;;;;;;16.30;14.90;;;7.50;99.90;;;;;;5070576;28;20459;-67
2022/11/13 07:52:56;;;;;;;14.90;13.80;;;7.60;99.90;;;;;;5069972;28;20454;-68
2022/11/13 07:55:23;;;;;;;16.00;14.80;;;7.70;99.90;;;;;;5072040;28;20469;-68
2022/11/13 07:57:50;;;;;;;17.27;15.87;;;7.70;99.90;;;;;;5075569;28;20786;-68
2022/11/13 08:00:17;;;;;;;17.17;15.80;;;7.80;99.90;;;;;;5070827;28;20837;-69
2022/11/13 08:02:46;;;;;;;15.97;14.90;;;7.90;99.90;;;;;;5072831;28;21012;-68
2022/11/13 08:05:14;;;;;;;15.90;14.80;;;8.00;99.90;;;;;;5068280;28;20479;-69
2022/11/13 08:07:42;;;;;;;16.47;15.17;;;8.00;99.90;;;;;;5067981;28;20458;-69
2022/11/13 08:10:09;;;;;;;15.47;14.47;;;8.10;99.90;;;;;;5075948;28;20465;-67
2022/11/13 08:12:36;;;;;;;16.07;14.67;;;8.10;99.90;;;;;;5073531;28;20945;-71
2022/11/13 08:15:05;;;;;;;15.83;14.77;;;8.20;99.90;;;;;;5075461;28;20459;-68
2022/11/13 08:17:32;;;;;;;16.90;14.47;;;8.30;99.90;;;;;;5077627;28;20495;-68
2022/11/13 08:19:59;;;;;;;15.90;14.60;;;8.40;99.90;;;;;;5071574;28;20494;-68
2022/11/13 08:22:26;;;;;;;16.20;14.83;;;8.40;99.90;;;;;;5075770;28;20465;-68
2022/11/13 08:24:54;;;;;;;17.03;15.20;;;8.60;99.90;;;;;;5068661;28;20529;-67
2022/11/13 08:27:22;;;;;;;15.63;14.63;;;8.70;99.90;;;;;;5073903;28;20477;-70
2022/11/13 08:29:49;;;;;;;16.67;14.57;;;8.80;99.90;;;;;;5077128;28;20836;-68
2022/11/13 08:32:16;;;;;;;16.70;14.93;;;8.90;99.90;;;;;;5078329;28;20469;-68
2022/11/13 08:34:43;;;;;;;16.53;15.00;;;9.00;99.90;;;;;;5073816;28;20945;-69
2022/11/13 08:37:11;;;;;;;17.50;15.90;;;9.10;99.90;;;;;;5068513;28;20463;-69
2022/11/13 08:39:38;;;;;;;15.93;14.70;;;9.20;99.90;;;;;;5073052;28;20922;-70
2022/11/13 08:42:06;;;;;;;16.53;15.23;;;9.30;99.90;;;;;;5074450;28;20844;-69
2022/11/13 08:44:33;;;;;;;20.07;15.50;;;9.40;99.90;;;;;;5075803;28;20457;-71
2022/11/13 08:47:00;;;;;;;17.30;15.17;;;9.50;99.90;;;;;;5075596;28;20465;-70
2022/11/13 08:49:26;;;;;;;15.50;14.30;;;9.70;99.90;;;;;;5075657;28;20466;-68
2022/11/13 08:51:53;;;;;;;16.90;15.40;;;9.80;99.90;;;;;;5079453;28;20470;-68
2022/11/13 08:54:21;;;;;;;16.00;14.90;;;9.80;99.90;;;;;;5078980;28;20870;-70
2022/11/13 08:56:48;;;;;;;17.53;15.70;;;9.90;99.90;;;;;;5076449;28;20458;-68
2022/11/13 08:59:17;;;;;;;17.77;15.80;;;10.10;99.90;;;;;;5072694;28;20518;-68
2022/11/13 09:01:44;;;;;;;16.20;14.77;;;10.20;99.90;;;;;;5073361;28;20478;-68
2022/11/13 09:04:11;;;;;;;15.17;14.27;;;10.30;99.90;;;;;;5066573;28;20478;-68
2022/11/13 09:06:38;;;;;;;16.80;15.43;;;10.40;99.90;;;;;;5076927;28;20466;-68
2022/11/13 09:09:07;;;;;;;15.30;14.40;;;10.50;99.90;;;;;;5075583;28;21089;-70
2022/11/13 09:11:33;;;;;;;17.17;15.40;;;10.60;99.90;;;;;;5074595;28;20459;-68
2022/11/13 09:14:00;;;;;;;17.10;15.80;;;10.60;99.90;;;;;;5069234;28;20459;-69
2022/11/13 09:16:29;;;;;;;15.70;14.70;;;10.70;99.90;;;;;;5078325;28;20454;-68
2022/11/13 09:18:55;;;;;;;16.23;15.13;;;10.70;99.90;;;;;;5071572;28;20505;-69
2022/11/13 09:21:22;;;;;;;16.00;14.97;;;10.80;99.90;;;;;;5068645;28;20574;-69
2022/11/13 09:23:49;;;;;;;17.07;15.63;;;10.80;99.90;;;;;;5072152;28;20463;-68
2022/11/13 09:26:17;;;;;;;21.03;17.23;;;10.80;99.90;;;;;;5072175;28;20459;-68
2022/11/13 09:28:44;;;;;;;19.70;15.70;;;10.90;99.90;;;;;;5073352;28;20841;-70
2022/11/13 09:31:10;;;;;;;18.50;16.17;;;11.00;99.90;;;;;;5076012;28;20536;-70
2022/11/13 09:33:39;;;;;;;17.00;15.40;;;11.10;99.90;;;;;;5075144;28;20474;-69
2022/11/13 09:36:11;;;;;;;15.90;14.30;;;11.20;99.90;;;;;;5074256;28;20454;-68
2022/11/13 09:38:38;;;;;;;16.70;15.40;;;11.20;99.90;;;;;;5066337;28;20977;-68
2022/11/13 09:41:08;;;;;;;17.10;15.23;;;11.30;99.90;;;;;;5071133;28;20467;-68
2022/11/13 09:43:39;;;;;;;17.47;15.70;;;11.30;99.90;;;;;;5071688;28;20457;-69
2022/11/13 09:46:21;;;;;;;16.97;15.77;;;11.40;99.90;;;;;;5075781;28;20540;-68
2022/11/13 09:48:56;;;;;;;26.23;15.80;;;11.50;99.90;;;;;;5077444;28;20973;-70
2022/11/13 09:51:35;;;;;;;17.33;15.80;;;11.60;99.90;;;;;;5067671;28;20454;-69
2022/11/13 09:54:06;;;;;;;16.90;15.60;;;11.80;99.90;;;;;;5077891;28;20462;-69
2022/11/13 09:56:38;;;;;;;16.37;15.10;;;12.00;99.90;;;;;;5071369;28;20800;-69
2022/11/13 09:59:19;;;;;;;16.23;15.03;;;12.00;99.90;;;;;;5074463;28;20823;-69
2022/11/13 10:01:55;;;;;;;15.47;14.40;;;12.10;99.90;;;;;;5070554;28;20482;-68
2022/11/13 10:04:33;;;;;;;18.17;16.30;;;12.20;99.90;;;;;;5072620;28;20482;-68
2022/11/13 10:07:12;;;;;;;19.93;16.60;;;12.30;99.90;;;;;;5070030;28;20482;-68
2022/11/13 10:09:52;;;;;;;16.00;14.70;;;12.40;99.90;;;;;;5074423;28;20930;-69
2022/11/13 10:12:20;;;;;;;18.50;15.60;;;12.50;99.90;;;;;;5070458;28;20471;-70
2022/11/13 10:14:51;;;;;;;16.53;15.23;;;12.60;99.90;;;;;;5080591;28;20453;-68
2022/11/13 10:17:24;;;;;;;16.07;14.63;;;12.60;99.90;;;;;;5073245;28;20458;-70
2022/11/13 10:19:58;;;;;;;17.77;14.80;;;12.70;99.90;;;;;;5070517;28;20489;-70
2022/11/13 10:22:31;;;;;;;17.40;15.60;;;12.80;99.90;;;;;;5073244;28;20469;-70
2022/11/13 10:25:09;;;;;;;16.30;15.23;;;12.90;99.90;;;;;;5068722;28;20463;-71
2022/11/13 10:27:36;;;;;;;16.03;14.77;;;13.10;99.90;;;;;;5075606;28;20882;-69
2022/11/13 10:30:03;;;;;;;18.80;15.40;;;13.20;99.90;;;;;;5071424;28;20567;-69
2022/11/13 10:32:32;;;;;;;16.50;14.93;;;13.30;99.90;;;;;;5075164;28;20794;-71
2022/11/13 10:35:17;;;;;;;17.00;15.20;;;13.50;99.90;;;;;;5074672;28;20458;-69
2022/11/13 10:37:55;;;;;;;16.10;14.50;;;14.00;99.90;;;;;;5076395;28;20474;-69
2022/11/13 10:40:25;;;;;;;16.00;14.73;;;15.00;99.90;;;;;;5071599;28;21031;-69
2022/11/13 10:42:53;;;;;;;14.37;13.67;;;16.10;99.90;;;;;;5070740;28;20475;-69
2022/11/13 10:45:21;;;;;;;14.83;13.77;;;17.00;99.90;;;;;;5077988;28;20499;-69
2022/11/13 10:47:50;;;;;;;17.20;14.80;;;17.70;99.90;;;;;;5071786;28;20875;-69
2022/11/13 10:50:22;;;;;;;14.83;13.70;;;18.60;99.90;;;;;;5070773;28;20954;-69
2022/11/13 10:52:51;;;;;;;15.57;14.27;;;19.50;99.90;;;;;;5073145;28;20470;-68
2022/11/13 10:55:25;;;;;;;15.03;13.73;;;20.40;98.50;;;;;;5070512;28;20463;-70
2022/11/13 10:57:57;;;;;;;14.73;13.73;;;20.70;95.60;;;;;;5072878;28;20453;-69
2022/11/13 11:00:27;;;;;;;14.77;13.97;;;21.10;93.80;;;;;;5077365;28;20485;-69
2022/11/13 11:02:54;;;;;;;14.90;14.00;;;21.30;91.50;;;;;;5072531;28;20466;-69
2022/11/13 11:05:24;;;;;;;15.00;14.00;;;21.50;90.70;;;;;;5076162;28;20491;-69
2022/11/13 11:07:52;;;;;;;14.40;13.70;;;21.70;89.20;;;;;;5081582;28;20882;-71
2022/11/13 11:10:22;;;;;;;14.10;13.40;;;21.40;84.40;;;;;;5074897;28;20470;-69
2022/11/13 11:12:53;;;;;;;15.27;14.23;;;21.50;80.70;;;;;;5069310;28;20541;-71
2022/11/13 11:15:24;;;;;;;14.80;14.10;;;21.40;82.40;;;;;;5074104;28;20459;-69
2022/11/13 11:17:54;;;;;;;14.00;13.40;;;21.70;82.10;;;;;;5076440;28;20573;-71
2022/11/13 11:20:28;;;;;;;14.60;13.90;;;21.60;78.90;;;;;;5079067;28;20505;-71
2022/11/13 11:23:01;;;;;;;14.67;13.97;;;21.60;77.10;;;;;;5075897;28;20458;-69
2022/11/13 11:25:37;;;;;;;15.17;14.37;;;21.60;74.80;;;;;;5074310;28;20508;-70
2022/11/13 11:28:12;;;;;;;15.93;14.33;;;21.90;73.80;;;;;;5079068;28;20470;-70
2022/11/13 11:30:44;;;;;;;15.20;14.00;;;22.40;73.70;;;;;;5083142;28;20514;-70
2022/11/13 11:33:15;;;;;;;14.23;13.53;;;22.30;70.60;;;;;;5075581;28;20502;-69
2022/11/13 11:35:49;;;;;;;14.43;13.73;;;22.30;69.10;;;;;;5075338;28;21010;-70
2022/11/13 11:38:21;;;;;;;14.63;13.83;;;22.40;70.60;;;;;;5070574;28;20485;-71
2022/11/13 11:40:52;;;;;;;14.63;13.87;;;22.20;70.30;;;;;;5079463;28;20572;-70
2022/11/13 11:43:26;;;;;;;14.67;13.87;;;22.30;68.60;;;;;;5073754;28;20481;-69
2022/11/13 11:45:53;;;;;;;16.83;15.37;;;22.60;67.90;;;;;;5073592;28;20459;-72
2022/11/13 11:48:23;;;;;;;14.20;13.40;;;22.80;68.70;;;;;;5073181;28;20471;-70
2022/11/13 11:51:02;;;;;;;14.70;13.80;;;22.70;67.10;;;;;;5075499;28;20462;-70
2022/11/13 11:53:39;;;;;;;14.07;13.27;;;22.30;66.20;;;;;;5078182;28;20462;-70
2022/11/13 11:56:22;;;;;;;14.97;13.90;;;22.70;67.00;;;;;;5068887;28;20510;-70
2022/11/13 11:59:08;;;;;;;14.40;13.50;;;22.80;65.30;;;;;;5077477;28;20541;-71
2022/11/13 12:02:00;;;;;;;14.17;13.43;;;22.70;65.50;;;;;;5084336;28;20463;-70
2022/11/13 12:04:39;;;;;;;13.90;12.93;;;22.60;63.40;;;;;;5075062;28;20482;-71
2022/11/13 12:07:21;;;;;;;14.90;14.00;;;22.50;62.50;;;;;;5073804;28;20462;-71
2022/11/13 12:09:57;;;;;;;14.97;14.10;;;23.40;64.30;;;;;;5076844;28;20470;-70
2022/11/13 12:12:33;;;;;;;14.97;13.90;;;23.50;60.50;;;;;;5074997;28;20463;-70
2022/11/13 12:15:08;;;;;;;14.70;13.80;;;23.60;60.50;;;;;;5076860;28;20466;-70
2022/11/13 12:17:47;;;;;;;15.17;14.33;;;23.70;59.50;;;;;;5075232;28;20973;-72
2022/11/13 12:20:26;;;;;;;14.73;13.83;;;23.90;60.90;;;;;;5073873;28;20486;-71
2022/11/13 12:23:02;;;;;;;14.90;14.20;;;24.30;58.90;;;;;;5068232;28;20455;-71
2022/11/13 12:25:35;;;;;;;14.13;13.43;;;24.40;57.60;;;;;;5075138;28;20462;-71
2022/11/13 12:28:10;;;;;;;15.10;14.00;;;24.40;57.70;;;;;;5077153;28;20467;-70
2022/11/13 12:30:45;;;;;;;14.57;13.77;;;24.20;56.90;;;;;;5075403;28;20463;-70
2022/11/13 12:33:26;;;;;;;13.97;13.07;;;24.10;57.00;;;;;;5080451;28;20465;-71
2022/11/13 12:35:53;;;;;;;14.90;14.07;;;23.80;56.90;;;;;;5069611;28;20488;-71
2022/11/13 12:38:32;;;;;;;13.93;13.33;;;23.70;56.10;;;;;;5075293;28;20487;-70
2022/11/13 12:41:07;;;;;;;15.17;14.30;;;24.00;56.90;;;;;;5081389;28;20837;-70
2022/11/13 12:43:52;;;;;;;16.43;14.10;;;24.10;55.50;;;;;;5077807;28;20840;-70